createdAt,value
2023-08-11T07:00:24.808Z,1015.09
2023-08-11T07:01:25.849Z,1015.03
2023-08-11T07:02:25.919Z,1015.04
2023-08-11T07:03:25.948Z,1015.10
2023-08-11T07:04:26.027Z,1015.04
2023-08-11T07:05:26.066Z,1015.05
2023-08-11T07:06:26.142Z,1015.07
2023-08-11T07:07:26.255Z,1015.10
2023-08-11T07:08:26.269Z,1015.04
2023-08-11T07:09:26.432Z,1015.06
2023-08-11T07:10:26.503Z,1015.09
2023-08-11T07:11:26.605Z,1015.06
2023-08-11T07:12:26.591Z,1014.98
2023-08-11T07:13:26.813Z,1015.01
2023-08-11T07:14:26.758Z,1015.04
2023-08-11T07:15:26.857Z,1015.01
2023-08-11T07:16:26.984Z,1014.99
2023-08-11T07:17:27.040Z,1015.00
2023-08-11T07:18:27.915Z,1014.96
2023-08-11T07:19:27.154Z,1014.98
2023-08-11T07:20:27.230Z,1014.99
2023-08-11T07:21:27.314Z,1014.98
2023-08-11T07:22:27.635Z,1014.95
2023-08-11T07:23:27.503Z,1014.99
2023-08-11T07:24:27.878Z,1014.98
2023-08-11T07:25:27.606Z,1014.97
2023-08-11T07:26:27.654Z,1014.95
2023-08-11T07:27:27.875Z,1014.93
2023-08-11T07:28:27.870Z,1014.93
2023-08-11T07:29:27.954Z,1014.91
2023-08-11T07:30:28.026Z,1014.94
2023-08-11T07:31:28.117Z,1014.93
2023-08-11T07:32:28.307Z,1014.94
2023-08-11T07:33:28.306Z,1014.93
2023-08-11T07:34:28.501Z,1014.88
2023-08-11T07:35:28.423Z,1014.82
2023-08-11T07:36:28.547Z,1014.88
2023-08-11T07:37:28.591Z,1014.84
2023-08-11T07:38:28.687Z,1014.84
2023-08-11T07:39:28.753Z,1014.87
2023-08-11T07:40:29.570Z,1014.81
2023-08-11T07:41:28.932Z,1014.83
2023-08-11T07:42:29.005Z,1014.82
2023-08-11T07:43:30.869Z,1014.83
2023-08-11T07:44:31.626Z,1014.84
2023-08-11T07:45:29.928Z,1014.86
2023-08-11T07:46:29.281Z,1014.86
2023-08-11T07:47:29.321Z,1014.90
2023-08-11T07:48:29.353Z,1014.90
2023-08-11T07:49:30.413Z,1014.84
2023-08-11T07:50:29.551Z,1014.80
2023-08-11T07:51:29.640Z,1014.85
2023-08-11T07:52:29.721Z,1014.86
2023-08-11T07:53:29.873Z,1014.84
2023-08-11T07:54:30.010Z,1014.86
2023-08-11T07:55:29.933Z,1014.85
2023-08-11T07:56:30.575Z,1014.85
2023-08-11T07:57:30.121Z,1014.88
2023-08-11T07:58:30.157Z,1014.85
2023-08-11T07:59:30.317Z,1014.90
2023-08-11T08:00:30.438Z,1014.90
2023-08-11T08:01:30.598Z,1014.89
2023-08-11T08:02:30.535Z,1014.89
2023-08-11T08:03:30.695Z,1014.88
2023-08-11T08:04:30.670Z,1014.89
2023-08-11T08:05:31.423Z,1014.88
2023-08-11T08:06:30.835Z,1014.88
2023-08-11T08:07:30.926Z,1014.93
2023-08-11T08:08:30.991Z,1014.93
2023-08-11T08:09:31.244Z,1014.93
2023-08-11T08:10:31.152Z,1014.94
2023-08-11T08:11:31.375Z,1014.93
2023-08-11T08:12:31.960Z,1014.95
2023-08-11T08:13:31.401Z,1014.91
2023-08-11T08:14:31.487Z,1014.86
2023-08-11T08:15:31.570Z,1014.87
2023-08-11T08:16:31.620Z,1014.90
2023-08-11T08:17:31.853Z,1014.88
2023-08-11T08:18:31.804Z,1014.87
2023-08-11T08:19:31.884Z,1014.90
2023-08-11T08:20:31.944Z,1014.88
2023-08-11T08:21:32.041Z,1014.87
2023-08-11T08:22:32.118Z,1014.87
2023-08-11T08:23:32.233Z,1014.86
2023-08-11T08:24:33.689Z,1014.84
2023-08-11T08:25:32.368Z,1014.83
2023-08-11T08:26:32.619Z,1014.84
2023-08-11T08:27:32.726Z,1014.81
2023-08-11T08:28:34.418Z,1014.81
2023-08-11T08:29:33.584Z,1014.86
2023-08-11T08:30:33.180Z,1014.91
2023-08-11T08:31:33.025Z,1014.92
2023-08-11T08:32:33.072Z,1014.83
2023-08-11T08:33:33.997Z,1014.86
2023-08-11T08:34:33.125Z,1014.81
2023-08-11T08:35:33.177Z,1014.87
2023-08-11T08:36:33.307Z,1014.88
2023-08-11T08:37:33.601Z,1014.84
2023-08-11T08:38:34.307Z,1014.95
2023-08-11T08:39:33.579Z,1014.95
2023-08-11T08:40:33.633Z,1014.94
2023-08-11T08:41:34.192Z,1014.92
2023-08-11T08:42:33.748Z,1014.85
2023-08-11T08:43:33.993Z,1014.73
2023-08-11T08:44:33.879Z,1014.77
2023-08-11T08:45:34.036Z,1014.71
2023-08-11T08:46:34.050Z,1014.75
2023-08-11T08:47:34.369Z,1014.73
2023-08-11T08:48:34.230Z,1014.75
2023-08-11T08:49:34.418Z,1014.79
2023-08-11T08:50:34.416Z,1014.76
2023-08-11T08:51:34.613Z,1014.84
2023-08-11T08:52:34.622Z,1014.82
2023-08-11T08:53:34.992Z,1014.86
2023-08-11T08:54:34.793Z,1014.76
2023-08-11T08:55:34.871Z,1014.77
2023-08-11T08:56:34.919Z,1014.80
2023-08-11T08:57:35.101Z,1014.79
2023-08-11T08:58:36.210Z,1014.76
2023-08-11T08:59:35.157Z,1014.74
2023-08-11T09:00:35.335Z,1014.79
2023-08-11T09:01:35.358Z,1014.78
2023-08-11T09:02:36.164Z,1014.80
2023-08-11T09:03:35.575Z,1014.78
2023-08-11T09:04:35.716Z,1014.75
2023-08-11T09:05:35.604Z,1014.72
2023-08-11T09:06:35.737Z,1014.69
2023-08-11T09:07:35.814Z,1014.74
2023-08-11T09:08:36.088Z,1014.74
2023-08-11T09:09:35.958Z,1014.75
2023-08-11T09:10:36.104Z,1014.72
2023-08-11T09:11:36.113Z,1014.66
2023-08-11T09:12:36.426Z,1014.73
2023-08-11T09:13:36.284Z,1014.75
2023-08-11T09:14:36.341Z,1014.80
2023-08-11T09:15:36.422Z,1014.79
2023-08-11T09:16:36.571Z,1014.76
2023-08-11T09:17:36.679Z,1014.74
2023-08-11T09:18:36.710Z,1014.80
2023-08-11T09:19:37.558Z,1014.75
2023-08-11T09:20:38.690Z,1014.72
2023-08-11T09:21:37.092Z,1014.70
2023-08-11T09:22:37.030Z,1014.75
2023-08-11T09:23:37.239Z,1014.70
2023-08-11T09:24:37.150Z,1014.73
2023-08-11T09:25:37.365Z,1014.64
2023-08-11T09:26:37.339Z,1014.50
2023-08-11T09:27:37.591Z,1014.56
2023-08-11T09:28:37.518Z,1014.66
2023-08-11T09:29:37.662Z,1014.58
2023-08-11T09:30:37.654Z,1014.66
2023-08-11T09:31:37.810Z,1014.62
2023-08-11T09:32:37.881Z,1014.50
2023-08-11T09:33:37.927Z,1014.55
2023-08-11T09:34:37.966Z,1014.49
2023-08-11T09:35:38.092Z,1014.55
2023-08-11T09:36:38.143Z,1014.41
2023-08-11T09:37:38.305Z,1014.42
2023-08-11T09:38:38.294Z,1014.45
2023-08-11T09:39:38.593Z,1014.44
2023-08-11T09:40:38.466Z,1014.44
2023-08-11T09:41:38.614Z,1014.49
2023-08-11T09:42:38.643Z,1014.55
2023-08-11T09:43:38.785Z,1014.57
2023-08-11T09:44:38.841Z,1014.58
2023-08-11T09:45:39.472Z,1014.58
2023-08-11T09:46:38.969Z,1014.52
2023-08-11T09:47:39.029Z,1014.56
2023-08-11T09:48:40.036Z,1014.49
2023-08-11T09:49:39.330Z,1014.42
2023-08-11T09:50:41.241Z,1014.37
2023-08-11T09:51:39.397Z,1014.29
2023-08-11T09:52:39.516Z,1014.14
2023-08-11T09:53:39.577Z,1014.13
2023-08-11T09:54:39.631Z,1014.02
2023-08-11T09:55:39.720Z,1013.93
2023-08-11T09:56:39.844Z,1013.87
2023-08-11T09:57:39.922Z,1013.84
2023-08-11T09:58:40.030Z,1013.76
2023-08-11T09:59:40.825Z,1013.69
2023-08-11T10:00:40.715Z,1013.65
2023-08-11T10:01:40.246Z,1013.62
2023-08-11T10:02:40.615Z,1013.53
2023-08-11T10:03:40.521Z,1013.52
2023-08-11T10:04:40.557Z,1013.53
2023-08-11T10:05:41.559Z,1013.47
2023-08-11T10:06:41.864Z,1013.48
2023-08-11T10:07:40.751Z,1013.49
2023-08-11T10:08:40.873Z,1013.48
2023-08-11T10:09:40.920Z,1013.48
2023-08-11T10:10:41.070Z,1013.46
2023-08-11T10:11:41.121Z,1013.40
2023-08-11T10:12:41.316Z,1013.42
2023-08-11T10:13:41.281Z,1013.38
2023-08-11T10:14:41.416Z,1013.38
2023-08-11T10:15:41.487Z,1013.32
2023-08-11T10:16:41.677Z,1013.32
2023-08-11T10:17:41.720Z,1013.32
2023-08-11T10:18:42.676Z,1013.26
2023-08-11T10:19:41.848Z,1013.23
2023-08-11T10:20:41.959Z,1013.22
2023-08-11T10:21:42.978Z,1013.18
2023-08-11T10:22:42.098Z,1013.21
2023-08-11T10:23:42.279Z,1013.18
2023-08-11T10:24:47.227Z,1013.16
2023-08-11T10:25:42.388Z,1013.18
2023-08-11T10:26:43.189Z,1013.17
2023-08-11T10:27:42.695Z,1013.21
2023-08-11T10:28:42.802Z,1013.22
2023-08-11T10:29:42.705Z,1013.21
2023-08-11T10:30:43.754Z,1013.20
2023-08-11T10:31:43.063Z,1013.14
2023-08-11T10:32:43.194Z,1013.12
2023-08-11T10:33:43.033Z,1013.08
2023-08-11T10:34:43.663Z,1013.08
2023-08-11T10:35:43.280Z,1013.09
2023-08-11T10:36:44.524Z,1013.07
2023-08-11T10:37:43.340Z,1013.05
2023-08-11T10:38:43.463Z,1013.06
2023-08-11T10:39:44.093Z,1013.04
2023-08-11T10:40:43.576Z,1013.01
2023-08-11T10:41:45.502Z,1013.06
2023-08-11T10:42:45.606Z,1013.06
2023-08-11T10:43:43.815Z,1013.02
2023-08-11T10:44:43.895Z,1013.04
2023-08-11T10:45:44.129Z,1013.06
2023-08-11T10:46:44.113Z,1013.07
2023-08-11T10:47:44.191Z,1013.13
2023-08-11T10:48:44.264Z,1013.20
2023-08-11T10:49:44.479Z,1013.17
2023-08-11T10:50:44.445Z,1013.18
2023-08-11T10:51:45.995Z,1013.15
2023-08-11T10:52:44.901Z,1013.12
2023-08-11T10:53:44.664Z,1013.08
2023-08-11T10:54:44.794Z,1013.04
2023-08-11T10:55:44.882Z,1013.05
2023-08-11T10:56:45.233Z,1013.00
2023-08-11T10:57:45.017Z,1013.00
2023-08-11T10:58:45.142Z,1013.02
2023-08-11T10:59:45.183Z,1013.03
2023-08-11T11:00:46.731Z,1013.02
2023-08-11T11:01:45.422Z,1013.06
2023-08-11T11:02:46.265Z,1013.06
2023-08-11T11:03:47.733Z,1013.11
2023-08-11T11:04:45.686Z,1013.08
2023-08-11T11:05:45.774Z,1013.07
2023-08-11T11:06:45.792Z,1013.01
2023-08-11T11:07:45.856Z,1013.00
2023-08-11T11:08:45.999Z,1013.01
2023-08-11T11:09:46.640Z,1013.00
2023-08-11T11:10:50.591Z,1012.98
2023-08-11T11:11:46.857Z,1013.04
2023-08-11T11:12:46.313Z,1013.03
2023-08-11T11:13:46.311Z,1013.06
2023-08-11T11:14:46.408Z,1013.08
2023-08-11T11:15:46.521Z,1013.04
2023-08-11T11:16:46.619Z,1013.01
2023-08-11T11:17:46.702Z,1013.09
2023-08-11T11:18:46.699Z,1013.09
2023-08-11T11:19:46.732Z,1013.08
2023-08-11T11:20:46.848Z,1013.06
2023-08-11T11:21:46.927Z,1013.10
2023-08-11T11:22:47.020Z,1013.09
2023-08-11T11:23:47.042Z,1013.04
2023-08-11T11:24:47.155Z,1013.01
2023-08-11T11:25:47.296Z,1012.97
2023-08-11T11:26:47.347Z,1012.94
2023-08-11T11:27:48.307Z,1012.99
2023-08-11T11:28:47.545Z,1012.99
2023-08-11T11:29:47.686Z,1012.96
2023-08-11T11:30:47.709Z,1012.95
2023-08-11T11:31:47.829Z,1012.94
2023-08-11T11:32:47.957Z,1012.96
2023-08-11T11:33:49.287Z,1012.93
2023-08-11T11:34:48.053Z,1012.97
2023-08-11T11:35:48.167Z,1012.96
2023-08-11T11:36:48.345Z,1012.96
2023-08-11T11:37:48.293Z,1012.96
2023-08-11T11:38:48.402Z,1012.92
2023-08-11T11:39:48.499Z,1012.90
2023-08-11T11:40:48.719Z,1012.88
2023-08-11T11:41:48.736Z,1012.91
2023-08-11T11:42:48.772Z,1012.92
2023-08-11T11:43:48.816Z,1012.88
2023-08-11T11:44:48.917Z,1012.91
2023-08-11T11:45:48.981Z,1012.87
2023-08-11T11:46:49.157Z,1012.83
2023-08-11T11:47:49.222Z,1012.82
2023-08-11T11:48:49.262Z,1012.80
2023-08-11T11:49:49.540Z,1012.86
2023-08-11T11:50:49.452Z,1012.82
2023-08-11T11:51:49.548Z,1012.81
2023-08-11T11:52:49.711Z,1012.77
2023-08-11T11:53:49.746Z,1012.82
2023-08-11T11:54:49.918Z,1012.82
2023-08-11T11:55:49.895Z,1012.81
2023-08-11T11:57:02.343Z,1012.84
2023-08-11T11:57:50.157Z,1012.84
2023-08-11T11:58:52.187Z,1012.78
2023-08-11T11:59:50.171Z,1012.79
2023-08-11T12:00:50.285Z,1012.78
2023-08-11T12:01:51.141Z,1012.79
2023-08-11T12:02:50.579Z,1012.73
2023-08-11T12:04:12.330Z,1012.73
2023-08-11T12:04:50.844Z,1012.71
2023-08-11T12:05:50.685Z,1012.78
2023-08-11T12:06:50.904Z,1012.77
2023-08-11T12:07:50.940Z,1012.80
2023-08-11T12:08:50.969Z,1012.70
2023-08-11T12:09:51.064Z,1012.69
2023-08-11T12:10:51.115Z,1012.75
2023-08-11T12:11:51.149Z,1012.74
2023-08-11T12:12:51.339Z,1012.77
2023-08-11T12:13:51.352Z,1012.75
2023-08-11T12:14:52.017Z,1012.73
2023-08-11T12:15:51.511Z,1012.75
2023-08-11T12:16:51.646Z,1012.75
2023-08-11T12:17:51.899Z,1012.78
2023-08-11T12:18:51.762Z,1012.84
2023-08-11T12:19:52.141Z,1012.85
2023-08-11T12:20:51.930Z,1012.86
2023-08-11T12:21:52.014Z,1012.87
2023-08-11T12:22:52.075Z,1012.84
2023-08-11T12:23:52.161Z,1012.85
2023-08-11T12:24:52.413Z,1012.89
2023-08-11T12:25:52.365Z,1012.90
2023-08-11T12:26:52.587Z,1012.89
2023-08-11T12:27:53.194Z,1012.92
2023-08-11T12:28:52.843Z,1012.93
2023-08-11T12:29:52.728Z,1013.05
2023-08-11T12:30:52.798Z,1013.10
2023-08-11T12:31:52.817Z,1013.07
2023-08-11T12:32:53.149Z,1013.08
2023-08-11T12:33:53.165Z,1013.07
2023-08-11T12:34:53.019Z,1013.11
2023-08-11T12:35:53.390Z,1013.11
2023-08-11T12:36:54.293Z,1013.06
2023-08-11T12:37:53.292Z,1013.04
2023-08-11T12:38:54.636Z,1013.02
2023-08-11T12:39:53.443Z,1013.05
2023-08-11T12:40:53.547Z,1013.07
2023-08-11T12:41:53.648Z,1013.07
2023-08-11T12:42:53.730Z,1012.99
2023-08-11T12:43:53.824Z,1013.07
2023-08-11T12:44:53.902Z,1013.18
2023-08-11T12:45:54.234Z,1013.25
2023-08-11T12:46:54.058Z,1013.26
2023-08-11T12:47:54.884Z,1013.27
2023-08-11T12:48:54.283Z,1013.26
2023-08-11T12:49:54.310Z,1013.14
2023-08-11T12:50:54.425Z,1013.06
2023-08-11T12:51:54.551Z,1013.01
2023-08-11T12:52:54.599Z,1013.00
2023-08-11T12:53:54.735Z,1012.97
2023-08-11T12:54:54.798Z,1012.97
2023-08-11T12:55:54.859Z,1012.99
2023-08-11T12:56:54.985Z,1012.94
2023-08-11T12:57:54.993Z,1012.93
2023-08-11T12:58:55.148Z,1012.98
2023-08-11T12:59:55.149Z,1012.95
2023-08-11T13:00:55.275Z,1012.94
2023-08-11T13:01:55.452Z,1012.92
2023-08-11T13:02:55.448Z,1012.90
2023-08-11T13:03:55.542Z,1012.89
2023-08-11T13:04:55.647Z,1012.94
2023-08-11T13:05:56.538Z,1012.94
2023-08-11T13:06:57.418Z,1012.97
2023-08-11T13:07:55.843Z,1013.02
2023-08-11T13:08:56.087Z,1012.99
2023-08-11T13:09:56.012Z,1013.00
2023-08-11T13:10:56.131Z,1012.95
2023-08-11T13:11:56.884Z,1013.00
2023-08-11T13:12:56.377Z,1012.95
2023-08-11T13:13:56.335Z,1012.95
2023-08-11T13:14:56.406Z,1012.92
2023-08-11T13:15:56.619Z,1012.92
2023-08-11T13:16:56.672Z,1012.79
2023-08-11T13:17:57.314Z,1012.88
2023-08-11T13:18:56.800Z,1012.88
2023-08-11T13:19:56.922Z,1012.90
2023-08-11T13:20:56.935Z,1012.88
2023-08-11T13:21:57.665Z,1012.88
2023-08-11T13:22:57.103Z,1012.85
2023-08-11T13:23:57.252Z,1012.85
2023-08-11T13:24:57.279Z,1012.73
2023-08-11T13:25:58.284Z,1012.71
2023-08-11T13:26:58.272Z,1012.71
2023-08-11T13:27:57.551Z,1012.73
2023-08-11T13:28:57.677Z,1012.78
2023-08-11T13:29:57.692Z,1012.77
2023-08-11T13:30:58.095Z,1012.76
2023-08-11T13:31:57.947Z,1012.86
2023-08-11T13:32:58.065Z,1012.85
2023-08-11T13:33:58.069Z,1012.92
2023-08-11T13:34:58.149Z,1012.92
2023-08-11T13:35:58.234Z,1012.92
2023-08-11T13:36:58.315Z,1012.98
2023-08-11T13:37:58.432Z,1012.95
2023-08-11T13:38:58.481Z,1012.96
2023-08-11T13:39:58.649Z,1012.96
2023-08-11T13:40:58.656Z,1012.93
2023-08-11T13:41:58.790Z,1012.93
2023-08-11T13:42:58.838Z,1012.89
2023-08-11T13:43:58.923Z,1012.89
2023-08-11T13:44:59.139Z,1012.95
2023-08-11T13:45:59.115Z,1012.90
2023-08-11T13:46:59.232Z,1012.89
2023-08-11T13:47:59.299Z,1012.88
2023-08-11T13:48:59.381Z,1012.87
2023-08-11T13:49:59.559Z,1012.85
2023-08-11T13:50:59.838Z,1012.85
2023-08-11T13:51:59.653Z,1012.87
2023-08-11T13:52:59.813Z,1012.81
2023-08-11T13:54:00.019Z,1012.87
2023-08-11T13:54:59.876Z,1012.85
2023-08-11T13:55:59.961Z,1012.84
2023-08-11T13:57:00.028Z,1012.82
2023-08-11T13:58:00.127Z,1012.81
2023-08-11T13:59:00.251Z,1012.81
2023-08-11T14:00:00.364Z,1012.76
2023-08-11T14:01:00.382Z,1012.75
2023-08-11T14:02:00.452Z,1012.73
2023-08-11T14:03:00.550Z,1012.78
2023-08-11T14:04:00.942Z,1012.76
2023-08-11T14:05:00.693Z,1012.80
2023-08-11T14:06:00.757Z,1012.81
2023-08-11T14:07:13.141Z,1012.83
2023-08-11T14:08:00.898Z,1012.81
2023-08-11T14:09:00.977Z,1012.82
2023-08-11T14:10:01.086Z,1012.80
2023-08-11T14:11:01.197Z,1012.79
2023-08-11T14:12:01.258Z,1012.75
2023-08-11T14:13:01.363Z,1012.73
2023-08-11T14:14:01.432Z,1012.76
2023-08-11T14:15:01.493Z,1012.74
2023-08-11T14:16:01.620Z,1012.68
2023-08-11T14:17:01.689Z,1012.75
2023-08-11T14:18:01.815Z,1012.72
2023-08-11T14:19:01.895Z,1012.86
2023-08-11T14:20:01.893Z,1012.83
2023-08-11T14:21:01.995Z,1012.83
2023-08-11T14:22:02.032Z,1012.78
2023-08-11T14:23:02.173Z,1012.86
2023-08-11T14:24:02.236Z,1012.88
2023-08-11T14:25:02.393Z,1012.85
2023-08-11T14:26:02.390Z,1012.86
2023-08-11T14:27:03.624Z,1012.85
2023-08-11T14:28:03.935Z,1012.88
2023-08-11T14:29:02.667Z,1012.93
2023-08-11T14:30:02.733Z,1012.88
2023-08-11T14:31:02.830Z,1012.97
2023-08-11T14:32:18.770Z,1012.95
2023-08-11T14:33:03.001Z,1012.98
2023-08-11T14:34:03.194Z,1012.97
2023-08-11T14:35:04.173Z,1012.96
2023-08-11T14:36:03.769Z,1012.97
2023-08-11T14:37:03.254Z,1012.96
2023-08-11T14:38:03.388Z,1012.97
2023-08-11T14:39:03.540Z,1012.95
2023-08-11T14:40:03.581Z,1013.02
2023-08-11T14:41:03.640Z,1013.06
2023-08-11T14:42:03.771Z,1013.12
2023-08-11T14:43:03.928Z,1013.11
2023-08-11T14:44:03.874Z,1013.18
2023-08-11T14:45:04.029Z,1013.16
2023-08-11T14:46:03.993Z,1013.25
2023-08-11T14:47:04.105Z,1013.24
2023-08-11T14:48:04.307Z,1013.28
2023-08-11T14:49:04.259Z,1013.29
2023-08-11T14:50:04.329Z,1013.28
2023-08-11T14:51:04.379Z,1013.26
2023-08-11T14:52:05.344Z,1013.28
2023-08-11T14:53:04.706Z,1013.28
2023-08-11T14:54:04.646Z,1013.25
2023-08-11T14:55:04.778Z,1013.27
2023-08-11T14:56:04.866Z,1013.32
2023-08-11T14:57:05.031Z,1013.29
2023-08-11T14:58:05.046Z,1013.30
2023-08-11T14:59:05.092Z,1013.31
2023-08-11T15:00:05.205Z,1013.29
2023-08-11T15:01:05.262Z,1012.55
2023-08-11T15:02:05.349Z,1012.57
2023-08-11T15:03:05.523Z,1012.53
2023-08-11T15:04:05.444Z,1012.56
2023-08-11T15:05:06.441Z,1012.53
2023-08-11T15:06:07.006Z,1012.56
2023-08-11T15:07:05.957Z,1012.48
2023-08-11T15:08:05.804Z,1012.49
2023-08-11T15:09:05.960Z,1012.51
2023-08-11T15:10:05.966Z,1012.56
2023-08-11T15:11:06.115Z,1012.54
2023-08-11T15:12:06.195Z,1012.52
2023-08-11T15:13:06.844Z,1012.51
2023-08-11T15:14:06.435Z,1012.55
2023-08-11T15:15:06.580Z,1012.55
2023-08-11T15:16:06.539Z,1012.53
2023-08-11T15:17:06.672Z,1012.51
2023-08-11T15:18:06.714Z,1012.51
2023-08-11T15:19:06.764Z,1012.48
2023-08-11T15:20:06.870Z,1012.53
2023-08-11T15:21:06.910Z,1012.53
2023-08-11T15:22:06.978Z,1012.52
2023-08-11T15:23:07.056Z,1012.56
2023-08-11T15:24:07.212Z,1012.52
2023-08-11T15:25:07.185Z,1012.52
2023-08-11T15:26:07.312Z,1012.48
2023-08-11T15:27:07.354Z,1012.44
2023-08-11T15:28:07.440Z,1012.48
2023-08-11T15:29:07.533Z,1012.45
2023-08-11T15:30:07.634Z,1012.50
2023-08-11T15:31:07.730Z,1012.43
2023-08-11T15:32:07.822Z,1012.48
2023-08-11T15:33:08.384Z,1012.46
2023-08-11T15:34:07.936Z,1012.49
2023-08-11T15:35:08.867Z,1012.53
2023-08-11T15:36:08.166Z,1012.52
2023-08-11T15:37:08.190Z,1012.50
2023-08-11T15:38:08.272Z,1012.51
2023-08-11T15:39:09.446Z,1012.49
2023-08-11T15:40:08.465Z,1012.52
2023-08-11T15:41:08.510Z,1012.55
2023-08-11T15:42:08.928Z,1012.55
2023-08-11T15:43:08.675Z,1012.57
2023-08-11T15:44:08.781Z,1012.48
2023-08-11T15:45:08.828Z,1012.52
2023-08-11T15:46:08.924Z,1012.50
2023-08-11T15:47:08.988Z,1012.49
2023-08-11T15:48:09.081Z,1012.46
2023-08-11T15:49:09.121Z,1012.51
2023-08-11T15:50:09.188Z,1012.48
2023-08-11T15:51:09.857Z,1012.48
2023-08-11T15:52:09.638Z,1012.49
2023-08-11T15:53:09.519Z,1012.50
2023-08-11T15:54:09.533Z,1012.49
2023-08-11T15:55:09.662Z,1012.49
2023-08-11T15:56:09.692Z,1012.49
2023-08-11T15:57:09.913Z,1012.47
2023-08-11T15:58:09.876Z,1012.47
2023-08-11T15:59:09.946Z,1012.45
2023-08-11T16:00:10.112Z,1012.48
2023-08-11T16:01:10.153Z,1012.49
2023-08-11T16:02:11.120Z,1012.44
2023-08-11T16:03:11.448Z,1012.42
2023-08-11T16:04:10.432Z,1012.50
2023-08-11T16:05:10.436Z,1012.55
2023-08-11T16:06:10.555Z,1012.51
2023-08-11T16:07:10.607Z,1012.49
2023-08-11T16:08:10.726Z,1012.53
2023-08-11T16:09:10.759Z,1012.54
2023-08-11T16:10:10.860Z,1012.50
2023-08-11T16:11:10.956Z,1012.52
2023-08-11T16:12:11.362Z,1012.55
2023-08-11T16:13:11.474Z,1012.50
2023-08-11T16:14:11.218Z,1012.50
2023-08-11T16:15:11.289Z,1012.51
2023-08-11T16:16:11.627Z,1012.46
2023-08-11T16:17:11.513Z,1012.45
2023-08-11T16:18:11.593Z,1012.46
2023-08-11T16:19:11.602Z,1012.46
2023-08-11T16:20:11.746Z,1012.45
2023-08-11T16:21:11.789Z,1012.44
2023-08-11T16:22:12.207Z,1012.46
2023-08-11T16:23:12.062Z,1012.43
2023-08-11T16:24:12.023Z,1012.46
2023-08-11T16:25:12.080Z,1012.45
2023-08-11T16:26:12.170Z,1012.43
2023-08-11T16:27:12.272Z,1012.42
2023-08-11T16:28:12.352Z,1012.42
2023-08-11T16:29:12.466Z,1012.44
2023-08-11T16:30:12.490Z,1012.44
2023-08-11T16:31:12.643Z,1012.45
2023-08-11T16:32:12.863Z,1012.40
2023-08-11T16:33:12.769Z,1012.42
2023-08-11T16:34:12.788Z,1012.43
2023-08-11T16:35:13.829Z,1012.41
2023-08-11T16:36:12.992Z,1012.45
2023-08-11T16:37:13.064Z,1012.42
2023-08-11T16:38:13.127Z,1012.39
2023-08-11T16:39:13.227Z,1012.44
2023-08-11T16:40:13.304Z,1012.40
2023-08-11T16:41:13.377Z,1012.41
2023-08-11T16:42:13.728Z,1012.43
2023-08-11T16:43:13.572Z,1012.38
2023-08-11T16:44:13.645Z,1012.36
2023-08-11T16:45:14.229Z,1012.38
2023-08-11T16:46:13.830Z,1012.37
2023-08-11T16:47:13.923Z,1012.37
2023-08-11T16:48:14.054Z,1012.37
2023-08-11T16:49:14.096Z,1012.37
2023-08-11T16:50:14.126Z,1012.35
2023-08-11T16:51:14.231Z,1012.36
2023-08-11T16:52:14.306Z,1012.33
2023-08-11T16:53:14.377Z,1012.35
2023-08-11T16:54:15.017Z,1012.36
2023-08-11T16:55:14.500Z,1012.39
2023-08-11T16:56:14.612Z,1012.33
2023-08-11T16:57:14.694Z,1012.30
2023-08-11T16:58:14.760Z,1012.33
2023-08-11T16:59:14.897Z,1012.32
2023-08-11T17:00:14.970Z,1012.32
2023-08-11T17:01:15.020Z,1012.32
2023-08-11T17:02:15.136Z,1012.29
2023-08-11T17:03:15.281Z,1012.30
2023-08-11T17:04:15.324Z,1012.29
2023-08-11T17:05:16.236Z,1012.29
2023-08-11T17:06:15.435Z,1012.24
2023-08-11T17:07:15.531Z,1012.24
2023-08-11T17:08:15.723Z,1012.26
2023-08-11T17:09:15.735Z,1012.27
2023-08-11T17:10:15.814Z,1012.25
2023-08-11T17:11:15.857Z,1012.25
2023-08-11T17:12:15.952Z,1012.23
2023-08-11T17:13:16.033Z,1012.24
2023-08-11T17:14:16.160Z,1012.22
2023-08-11T17:15:16.351Z,1012.22
2023-08-11T17:16:16.452Z,1012.18
2023-08-11T17:17:16.437Z,1012.24
2023-08-11T17:18:16.444Z,1012.21
2023-08-11T17:19:16.522Z,1012.18
2023-08-11T17:20:16.680Z,1012.23
2023-08-11T17:21:16.726Z,1012.23
2023-08-11T17:22:16.798Z,1012.19
2023-08-11T17:23:17.775Z,1012.17
2023-08-11T17:24:16.976Z,1012.23
2023-08-11T17:25:17.102Z,1012.19
2023-08-11T17:26:17.190Z,1012.17
2023-08-11T17:27:17.207Z,1012.24
2023-08-11T17:28:17.261Z,1012.22
2023-08-11T17:29:17.408Z,1012.21
2023-08-11T17:30:17.494Z,1012.16
2023-08-11T17:31:17.644Z,1012.20
2023-08-11T17:32:17.764Z,1012.15
2023-08-11T17:33:17.772Z,1012.20
2023-08-11T17:34:17.798Z,1012.22
2023-08-11T17:35:17.930Z,1012.21
2023-08-11T17:36:17.987Z,1012.16
2023-08-11T17:37:18.043Z,1012.20
2023-08-11T17:38:18.136Z,1012.14
2023-08-11T17:39:18.261Z,1012.14
2023-08-11T17:40:18.423Z,1012.13
2023-08-11T17:41:20.260Z,1012.14
2023-08-11T17:42:19.405Z,1012.12
2023-08-11T17:43:18.537Z,1012.11
2023-08-11T17:44:18.667Z,1012.10
2023-08-11T17:45:18.695Z,1012.12
2023-08-11T17:46:18.877Z,1012.13
2023-08-11T17:47:19.058Z,1012.10
2023-08-11T17:48:19.196Z,1012.14
2023-08-11T17:49:19.187Z,1012.11
2023-08-11T17:50:19.156Z,1012.11
2023-08-11T17:51:19.328Z,1012.10
2023-08-11T17:52:19.433Z,1012.16
2023-08-11T17:53:21.307Z,1012.16
2023-08-11T17:54:19.513Z,1012.13
2023-08-11T17:55:19.865Z,1012.12
2023-08-11T17:56:19.715Z,1012.11
2023-08-11T17:57:20.013Z,1012.11
2023-08-11T17:58:19.859Z,1012.10
2023-08-11T17:59:19.904Z,1012.10
2023-08-11T18:00:19.990Z,1012.09
2023-08-11T18:01:20.117Z,1012.10
2023-08-11T18:02:20.206Z,1012.11
2023-08-11T18:03:20.343Z,1012.08
2023-08-11T18:04:20.353Z,1012.08
2023-08-11T18:05:20.383Z,1012.05
2023-08-11T18:06:20.514Z,1012.03
2023-08-11T18:07:20.594Z,1012.04
2023-08-11T18:08:20.634Z,1012.03
2023-08-11T18:09:20.745Z,1012.01
2023-08-11T18:10:20.844Z,1012.07
2023-08-11T18:11:20.886Z,1012.06
2023-08-11T18:12:21.318Z,1012.05
2023-08-11T18:13:21.085Z,1012.05
2023-08-11T18:14:21.217Z,1012.09
2023-08-11T18:15:21.259Z,1012.14
2023-08-11T18:16:21.374Z,1012.12
2023-08-11T18:17:21.527Z,1012.11
2023-08-11T18:18:21.540Z,1012.14
2023-08-11T18:19:21.633Z,1012.11
2023-08-11T18:20:21.729Z,1012.17
2023-08-11T18:21:21.834Z,1012.11
2023-08-11T18:22:21.951Z,1012.12
2023-08-11T18:23:21.966Z,1012.13
2023-08-11T18:24:22.795Z,1012.18
2023-08-11T18:25:22.135Z,1012.18
2023-08-11T18:26:22.169Z,1012.22
2023-08-11T18:27:22.259Z,1012.22
2023-08-11T18:28:22.446Z,1012.23
2023-08-11T18:29:22.467Z,1012.27
2023-08-11T18:30:22.507Z,1012.22
2023-08-11T18:31:22.628Z,1012.27
2023-08-11T18:32:22.677Z,1012.22
2023-08-11T18:33:22.785Z,1012.29
2023-08-11T18:34:22.843Z,1012.23
2023-08-11T18:35:22.920Z,1012.23
2023-08-11T18:36:22.999Z,1012.23
2023-08-11T18:37:23.135Z,1012.26
2023-08-11T18:38:23.247Z,1012.20
2023-08-11T18:39:23.272Z,1012.22
2023-08-11T18:40:23.291Z,1012.22
2023-08-11T18:41:23.348Z,1012.25
2023-08-11T18:42:23.483Z,1012.21
2023-08-11T18:43:23.529Z,1012.20
2023-08-11T18:44:23.662Z,1012.19
2023-08-11T18:45:23.662Z,1012.24
2023-08-11T18:46:23.749Z,1012.22
2023-08-11T18:47:23.811Z,1012.20
2023-08-11T18:48:23.986Z,1012.20
2023-08-11T18:49:24.001Z,1012.23
2023-08-11T18:50:24.076Z,1012.20
2023-08-11T18:51:24.174Z,1012.24
2023-08-11T18:52:24.221Z,1012.24
2023-08-11T18:53:24.316Z,1012.24
2023-08-11T18:54:24.396Z,1012.24
2023-08-11T18:55:24.439Z,1012.25
2023-08-11T18:56:24.570Z,1012.21
2023-08-11T18:57:24.720Z,1012.23
2023-08-11T18:58:24.763Z,1012.25
2023-08-11T18:59:24.826Z,1012.29
